Time;durP1;ratioP1;P1;durP2;ratioP2;P2;SDS_P1;SDS_P2;PMS_P1;PMS_P2;Temp;Humidity;BMP_temperature;BMP_pressure;BME280_temperature;BME280_humidity;BME280_pressure;Samples;Min_cycle;Max_cycle;Signal;HPM_P1;HPM_P2
2021/01/29 00:01:18;;;;;;;3.50;1.90;;;;;;;-6.58;100.00;99738.19;4949557;28;20547;-68
2021/01/29 00:03:44;;;;;;;3.10;1.60;;;;;;;-6.62;100.00;99738.03;4950761;28;20452;-69
2021/01/29 00:06:11;;;;;;;4.37;1.60;;;;;;;-6.64;100.00;99732.88;4947073;29;20481;-69
2021/01/29 00:08:37;;;;;;;2.63;2.03;;;;;;;-6.60;100.00;99733.81;4947074;28;20516;-68
2021/01/29 00:11:04;;;;;;;3.10;2.00;;;;;;;-6.44;100.00;99730.06;4945891;29;20043;-68
2021/01/29 00:13:30;;;;;;;4.57;1.83;;;;;;;-6.33;100.00;99737.28;4947425;28;20062;-69
2021/01/29 00:15:56;;;;;;;4.73;3.57;;;;;;;-6.19;100.00;99731.72;4955207;28;20071;-70
2021/01/29 00:18:23;;;;;;;3.53;2.13;;;;;;;-6.15;100.00;99721.56;4947975;28;20043;-69
2021/01/29 00:20:50;;;;;;;6.50;2.83;;;;;;;-6.17;100.00;99720.66;5009394;23;20043;-91
2021/01/29 00:23:19;;;;;;;3.30;2.07;;;;;;;-6.14;100.00;99723.28;4997433;28;20046;-91
2021/01/29 00:25:48;;;;;;;2.50;1.97;;;;;;;-6.16;100.00;99721.50;4972132;28;20054;-92
2021/01/29 00:28:15;;;;;;;3.77;1.97;;;;;;;-6.28;100.00;99715.19;4969517;28;20046;-92
2021/01/29 00:30:42;;;;;;;3.93;1.70;;;;;;;-6.37;100.00;99714.03;4965413;28;20050;-92
2021/01/29 00:33:11;;;;;;;3.50;1.87;;;;;;;-6.46;100.00;99716.31;4965064;28;20054;-91
2021/01/29 00:35:38;;;;;;;4.27;1.90;;;;;;;-6.54;100.00;99713.47;4964798;28;20053;-92
2021/01/29 00:38:06;;;;;;;4.13;1.90;;;;;;;-6.57;100.00;99716.81;4965478;28;20110;-91
2021/01/29 00:40:34;;;;;;;4.17;1.83;;;;;;;-6.62;100.00;99718.38;4980987;28;20053;-92
2021/01/29 00:43:00;;;;;;;3.07;1.90;;;;;;;-6.65;100.00;99720.81;4965627;28;20046;-92
2021/01/29 00:45:36;;;;;;;2.63;1.60;;;;;;;-6.67;100.00;99709.63;4964022;28;20070;-92
2021/01/29 00:48:07;;;;;;;3.37;1.77;;;;;;;-6.63;100.00;99710.63;4997707;28;20047;-91
2021/01/29 00:50:35;;;;;;;3.03;1.80;;;;;;;-6.59;100.00;99715.88;4962244;28;20133;-92
2021/01/29 00:53:01;;;;;;;4.27;1.90;;;;;;;-6.58;100.00;99712.50;4966683;28;20051;-91
2021/01/29 00:55:27;;;;;;;1.70;1.50;;;;;;;-6.54;100.00;99704.06;4963368;28;20529;-92
2021/01/29 00:57:54;;;;;;;2.60;1.80;;;;;;;-6.49;100.00;99706.78;4960452;28;20058;-91
2021/01/29 01:00:20;;;;;;;3.77;2.17;;;;;;;-6.42;100.00;99716.44;4966764;28;20056;-91
2021/01/29 01:02:47;;;;;;;3.30;1.90;;;;;;;-6.41;100.00;99705.31;4967373;28;20050;-91
2021/01/29 01:05:17;;;;;;;3.13;1.90;;;;;;;-6.38;100.00;99702.88;4980603;28;20050;-92
2021/01/29 01:07:43;;;;;;;2.63;1.90;;;;;;;-6.34;100.00;99701.25;4978703;28;20047;-91
2021/01/29 01:10:10;;;;;;;5.07;2.70;;;;;;;-6.31;100.00;99686.78;4963919;28;20105;-92
2021/01/29 01:12:37;;;;;;;4.13;2.33;;;;;;;-6.27;100.00;99686.06;4966191;28;20061;-92
2021/01/29 01:15:13;;;;;;;3.97;2.00;;;;;;;-6.27;100.00;99678.38;4998507;28;20054;-91
2021/01/29 01:17:40;;;;;;;5.27;1.90;;;;;;;-6.28;100.00;99679.19;4982004;28;20132;-91
2021/01/29 01:20:10;;;;;;;3.43;1.90;;;;;;;-6.29;100.00;99680.03;4965376;28;20047;-92
2021/01/29 01:22:40;;;;;;;5.87;2.33;;;;;;;-6.26;100.00;99674.97;4965483;28;20038;-91
2021/01/29 01:25:07;;;;;;;4.17;2.00;;;;;;;-6.26;100.00;99666.38;4962505;28;20050;-94
2021/01/29 01:27:34;;;;;;;4.33;2.00;;;;;;;-6.26;100.00;99672.41;4971008;28;20053;-91
2021/01/29 01:30:01;;;;;;;3.60;1.70;;;;;;;-6.24;100.00;99677.56;4967040;28;20053;-94
2021/01/29 01:32:27;;;;;;;2.87;1.90;;;;;;;-6.19;100.00;99670.88;4986639;28;20096;-90
2021/01/29 01:34:53;;;;;;;3.53;2.20;;;;;;;-6.15;100.00;99675.28;4987439;28;20046;-93
2021/01/29 01:37:19;;;;;;;3.20;2.23;;;;;;;-6.09;100.00;99680.63;4967695;28;20057;-93
2021/01/29 01:39:46;;;;;;;3.10;1.90;;;;;;;-6.04;100.00;99671.34;4981660;28;20513;-93
2021/01/29 01:42:12;;;;;;;5.13;2.03;;;;;;;-5.98;100.00;99675.78;4971689;28;20042;-91
2021/01/29 01:44:42;;;;;;;3.03;2.07;;;;;;;-5.94;100.00;99682.78;4987231;28;20046;-94
2021/01/29 01:47:22;;;;;;;3.90;1.70;;;;;;;-5.90;100.00;99684.56;4971644;28;20101;-91
2021/01/29 01:49:53;;;;;;;2.80;2.00;;;;;;;-5.89;100.00;99682.88;4968299;28;20042;-92
2021/01/29 01:52:29;;;;;;;2.97;2.57;;;;;;;-5.87;100.00;99676.09;4971905;28;20137;-90
2021/01/29 01:55:06;;;;;;;5.10;2.00;;;;;;;-5.81;100.00;99694.25;4969948;28;20133;-90
2021/01/29 01:57:33;;;;;;;5.30;2.73;;;;;;;-5.80;100.00;99690.84;4970370;28;20485;-91
2021/01/29 02:00:06;;;;;;;4.57;2.10;;;;;;;-5.73;100.00;99690.19;4985170;28;20046;-91
2021/01/29 02:02:34;;;;;;;5.63;2.90;;;;;;;-5.62;100.00;99687.97;4967429;28;20058;-91
2021/01/29 02:05:03;;;;;;;3.87;2.60;;;;;;;-5.62;100.00;99682.81;4962979;28;20043;-90
2021/01/29 02:07:53;;;;;;;4.13;2.70;;;;;;;-5.60;100.00;99683.72;4947785;28;20046;-91
2021/01/29 02:10:21;;;;;;;4.23;2.33;;;;;;;-5.62;100.00;99682.81;4965278;28;20042;-93
2021/01/29 02:12:50;;;;;;;4.17;2.10;;;;;;;-5.59;100.00;99688.91;4967086;28;20058;-93
2021/01/29 02:15:21;;;;;;;4.47;2.23;;;;;;;-5.52;100.00;99687.38;4967941;28;20493;-92
2021/01/29 02:17:48;;;;;;;5.67;3.10;;;;;;;-5.46;100.00;99698.72;4965983;28;20523;-93
2021/01/29 02:20:53;;;;;;;7.80;3.70;;;;;;;-5.39;100.00;99695.47;4976576;28;20411;-93
2021/01/29 02:23:28;;;;;;;7.50;2.90;;;;;;;-5.34;100.00;99690.47;4982493;28;20045;-92
2021/01/29 02:26:22;;;;;;;5.67;2.70;;;;;;;-5.27;100.00;99681.22;4968204;28;20046;-90
2021/01/29 02:29:27;;;;;;;4.27;2.73;;;;;;;-5.16;100.00;99682.34;4984622;28;20055;-90
2021/01/29 02:32:15;;;;;;;4.70;3.00;;;;;;;-5.12;100.00;99673.91;4984221;28;20046;-91
2021/01/29 02:35:21;;;;;;;4.27;3.33;;;;;;;-5.12;100.00;99676.47;4990353;28;20050;-91
2021/01/29 02:38:22;;;;;;;3.60;2.40;;;;;;;-5.11;100.00;99673.94;4990012;28;20046;-91
2021/01/29 02:41:22;;;;;;;6.53;2.30;;;;;;;-5.07;100.00;99681.72;4988230;28;20046;-92
2021/01/29 02:44:02;;;;;;;4.07;2.43;;;;;;;-5.05;100.00;99675.78;4980673;28;20194;-93
2021/01/29 02:47:00;;;;;;;3.73;2.27;;;;;;;-5.02;100.00;99677.56;4963036;28;20038;-93
2021/01/29 02:49:44;;;;;;;3.47;2.40;;;;;;;-5.08;100.00;99669.69;4978424;28;20039;-90
2021/01/29 02:52:35;;;;;;;2.63;1.83;;;;;;;-5.09;100.00;99673.97;4966264;28;20051;-93
2021/01/29 02:55:22;;;;;;;5.53;2.63;;;;;;;-5.05;100.00;99668.06;4965733;28;20039;-93
2021/01/29 02:57:55;;;;;;;5.93;2.13;;;;;;;-5.05;100.00;99669.75;4982626;28;20516;-93
2021/01/29 03:00:32;;;;;;;4.13;2.00;;;;;;;-5.08;100.00;99655.09;4966831;28;20050;-93
2021/01/29 03:03:15;;;;;;;5.30;2.20;;;;;;;-5.08;100.00;99660.25;4967922;28;20042;-92
2021/01/29 03:05:55;;;;;;;3.70;1.80;;;;;;;-5.10;100.00;99657.66;4981835;28;20038;-92
2021/01/29 03:08:27;;;;;;;2.80;1.73;;;;;;;-5.10;100.00;99649.06;4966544;28;20046;-93
2021/01/29 03:11:01;;;;;;;3.43;2.03;;;;;;;-5.09;100.00;99640.50;4974010;28;20061;-92
2021/01/29 03:13:48;;;;;;;3.92;2.30;;;;;;;-5.05;100.00;99639.72;4964670;28;20051;-93
2021/01/29 03:16:28;;;;;;;3.80;2.10;;;;;;;-5.03;100.00;99635.50;4972238;28;20039;-93
2021/01/29 03:19:01;;;;;;;3.60;2.03;;;;;;;-5.04;100.00;99635.44;4965106;28;20114;-92
2021/01/29 03:21:31;;;;;;;2.97;1.90;;;;;;;-5.06;100.00;99627.69;4976234;28;20137;-93
2021/01/29 03:24:00;;;;;;;2.90;1.93;;;;;;;-5.11;100.00;99625.00;4978317;28;20055;-93
2021/01/29 03:26:40;;;;;;;3.73;2.20;;;;;;;-5.12;100.00;99617.25;4974937;28;20039;-92
2021/01/29 03:29:11;;;;;;;3.70;1.43;;;;;;;-5.11;100.00;99627.59;4967670;28;20054;-93
2021/01/29 03:31:41;;;;;;;2.97;1.70;;;;;;;-5.12;100.00;99614.69;4964886;28;20645;-93
2021/01/29 03:34:26;;;;;;;3.67;1.93;;;;;;;-5.09;100.00;99617.31;4976943;28;20046;-92
2021/01/29 03:37:04;;;;;;;5.03;1.77;;;;;;;-5.06;100.00;99619.94;4962299;28;20038;-92
2021/01/29 03:39:40;;;;;;;3.40;2.00;;;;;;;-5.06;100.00;99630.25;4957973;28;20093;-94
2021/01/29 03:42:30;;;;;;;4.33;2.60;;;;;;;-5.07;100.00;99625.06;4966802;28;20046;-92
2021/01/29 03:45:11;;;;;;;5.80;2.10;;;;;;;-5.10;100.00;99628.44;4965216;28;20064;-93
2021/01/29 03:48:03;;;;;;;3.63;1.93;;;;;;;-5.10;100.00;99626.75;4964659;28;20125;-92
2021/01/29 03:50:46;;;;;;;3.33;1.77;;;;;;;-5.17;100.00;99613.66;4999637;28;20042;-93
2021/01/29 03:53:45;;;;;;;2.67;2.10;;;;;;;-5.28;100.00;99608.25;4959695;28;20513;-92
2021/01/29 03:56:26;;;;;;;1.60;1.37;;;;;;;-5.39;100.00;99607.09;4977300;28;20054;-93
2021/01/29 03:59:21;;;;;;;2.97;1.67;;;;;;;-5.54;100.00;99592.13;4998063;28;20043;-92
2021/01/29 04:02:06;;;;;;;4.63;1.85;;;;;;;-5.63;100.00;99598.72;4972734;28;20042;-92
2021/01/29 04:04:41;;;;;;;2.60;1.50;;;;;;;-5.71;100.00;99588.25;4963152;28;20081;-91
2021/01/29 04:07:17;;;;;;;2.90;2.00;;;;;;;-5.76;100.00;99588.09;4965980;28;20049;-93
2021/01/29 04:09:48;;;;;;;2.80;1.90;;;;;;;-5.77;100.00;99594.09;4984314;28;20054;-92
2021/01/29 04:12:21;;;;;;;2.80;1.80;;;;;;;-5.77;100.00;99591.50;4962436;28;20041;-92
2021/01/29 04:14:54;;;;;;;2.13;1.40;;;;;;;-5.74;100.00;99589.00;4962305;28;20050;-93
2021/01/29 04:17:28;;;;;;;3.58;1.73;;;;;;;-5.70;100.00;99566.81;4995530;28;20046;-92
2021/01/29 04:20:05;;;;;;;3.30;1.53;;;;;;;-5.66;100.00;99566.06;4959641;28;20595;-93
2021/01/29 04:22:35;;;;;;;2.73;1.73;;;;;;;-5.61;100.00;99568.78;4959200;28;20052;-93
2021/01/29 04:25:19;;;;;;;2.33;1.43;;;;;;;-5.57;100.00;99563.72;4975676;28;20046;-93
2021/01/29 04:27:48;;;;;;;2.42;1.70;;;;;;;-5.54;100.00;99555.25;4959697;28;20039;-93
2021/01/29 04:30:19;;;;;;;2.50;1.47;;;;;;;-5.51;100.00;99560.47;4957841;28;20097;-93
2021/01/29 04:32:51;;;;;;;4.60;2.13;;;;;;;-5.44;100.00;99562.38;4959350;28;20042;-93
2021/01/29 04:35:20;;;;;;;2.77;1.50;;;;;;;-5.42;100.00;99555.53;4960072;28;20674;-93
2021/01/29 04:37:59;;;;;;;3.80;1.93;;;;;;;-5.36;100.00;99554.84;4975988;28;20113;-93
2021/01/29 04:40:32;;;;;;;4.23;1.93;;;;;;;-5.35;100.00;99551.44;4976193;28;20066;-93
2021/01/29 04:43:17;;;;;;;4.70;1.90;;;;;;;-5.33;100.00;99549.75;4960041;28;20065;-92
2021/01/29 04:46:14;;;;;;;1.55;1.33;;;;;;;-5.33;100.00;99553.19;4975315;28;20690;-93
2021/01/29 04:49:22;;;;;;;2.37;1.47;;;;;;;-5.36;100.00;99537.69;4971952;28;20056;-93
2021/01/29 04:52:17;;;;;;;2.37;1.40;;;;;;;-5.35;100.00;99538.56;4991971;28;20053;-93
2021/01/29 04:55:08;;;;;;;3.45;1.50;;;;;;;-5.39;100.00;99535.00;4990605;28;20230;-92
2021/01/29 04:57:49;;;;;;;2.63;1.57;;;;;;;-5.42;100.00;99533.25;4986336;28;20073;-94
2021/01/29 05:01:10;;;;;;;2.30;1.60;;;;;;;-5.49;100.00;99515.91;4955971;28;20113;-93
2021/01/29 05:04:13;;;;;;;2.27;1.57;;;;;;;-5.50;100.00;99505.59;4964527;28;20045;-93
2021/01/29 05:06:49;;;;;;;2.40;1.50;;;;;;;-5.55;100.00;99496.84;4944532;28;20053;-94
2021/01/29 05:09:22;;;;;;;2.53;1.40;;;;;;;-5.57;100.00;99491.69;4982160;28;20081;-93
2021/01/29 05:12:00;;;;;;;3.00;1.40;;;;;;;-5.61;100.00;99495.03;4991487;28;20385;-92
2021/01/29 05:14:54;;;;;;;2.90;1.60;;;;;;;-5.61;100.00;99486.44;4955472;28;20362;-93
2021/01/29 05:17:45;;;;;;;2.40;1.40;;;;;;;-5.64;100.00;99476.91;4975532;28;20042;-93
2021/01/29 05:20:27;;;;;;;3.23;1.57;;;;;;;-5.67;100.00;99472.56;4975541;28;20050;-93
2021/01/29 05:22:57;;;;;;;3.27;1.57;;;;;;;-5.68;100.00;99464.81;4959972;28;20501;-94
2021/01/29 05:25:38;;;;;;;3.80;2.27;;;;;;;-5.66;100.00;99458.88;4955888;28;20050;-92
2021/01/29 05:28:18;;;;;;;2.83;1.60;;;;;;;-5.66;100.00;99453.72;4974746;28;20179;-92
2021/01/29 05:31:20;;;;;;;2.27;1.30;;;;;;;-5.67;100.00;99446.84;4965181;28;20054;-94
2021/01/29 05:33:54;;;;;;;2.10;1.23;;;;;;;-5.67;100.00;99431.41;4956215;28;20066;-93
2021/01/29 05:36:45;;;;;;;4.63;1.70;;;;;;;-5.69;100.00;99420.22;4989785;28;20591;-93
2021/01/29 05:39:29;;;;;;;2.73;1.60;;;;;;;-5.66;100.00;99419.41;4959548;28;20185;-93
2021/01/29 05:42:05;;;;;;;1.85;1.35;;;;;;;-5.66;100.00;99414.28;4975064;28;20061;-93
2021/01/29 05:45:07;;;;;;;3.07;1.53;;;;;;;-5.68;100.00;99421.09;4955622;28;20046;-93
2021/01/29 05:47:42;;;;;;;2.87;1.60;;;;;;;-5.71;100.00;99421.91;4954056;28;20058;-93
2021/01/29 05:50:27;;;;;;;4.63;2.00;;;;;;;-5.75;100.00;99422.63;4973863;28;20067;-93
2021/01/29 05:53:32;;;;;;;2.73;1.93;;;;;;;-5.83;100.00;99411.28;4974322;28;20096;-93
2021/01/29 05:56:09;;;;;;;4.87;2.07;;;;;;;-5.89;100.00;99411.13;4974941;28;20042;-94
2021/01/29 05:59:09;;;;;;;3.20;1.93;;;;;;;-5.98;100.00;99398.94;4955721;28;20528;-93
2021/01/29 06:01:56;;;;;;;2.70;1.70;;;;;;;-6.07;100.00;99393.56;4951326;28;20097;-94
2021/01/29 06:04:41;;;;;;;2.37;1.60;;;;;;;-6.14;100.00;99391.69;4970999;28;20141;-94
2021/01/29 06:07:44;;;;;;;3.30;1.77;;;;;;;-6.24;100.00;99394.84;4985863;28;20046;-93
2021/01/29 06:10:32;;;;;;;2.88;1.50;;;;;;;-6.32;100.00;99404.91;4988500;28;20046;-92
2021/01/29 06:13:10;;;;;;;2.67;2.03;;;;;;;-6.40;100.00;99398.72;4971961;28;20053;-92
2021/01/29 06:16:02;;;;;;;3.60;1.83;;;;;;;-6.40;100.00;99401.28;5005424;28;20150;-93
2021/01/29 06:18:41;;;;;;;3.77;2.03;;;;;;;-6.43;100.00;99408.06;4973605;28;20125;-93
2021/01/29 06:21:26;;;;;;;4.90;2.50;;;;;;;-6.53;100.00;99402.66;4979349;28;20061;-93
2021/01/29 06:24:05;;;;;;;5.97;2.63;;;;;;;-6.54;100.00;99410.34;4979187;28;20439;-92
2021/01/29 06:26:56;;;;;;;5.70;2.80;;;;;;;-6.56;100.00;99406.81;4962568;28;20038;-94
2021/01/29 06:29:37;;;;;;;5.80;3.10;;;;;;;-6.60;100.00;99418.72;4961996;28;20080;-95
2021/01/29 06:32:22;;;;;;;5.53;2.83;;;;;;;-6.59;100.00;99409.31;4978255;28;20046;-92
2021/01/29 06:35:02;;;;;;;9.00;3.20;;;;;;;-6.63;100.00;99399.81;4960567;28;20042;-93
2021/01/29 06:37:40;;;;;;;6.57;3.23;;;;;;;-6.68;100.00;99401.38;4944481;28;20046;-93
2021/01/29 06:40:33;;;;;;;6.33;3.43;;;;;;;-6.78;100.00;99381.41;4965197;28;20133;-93
2021/01/29 06:43:18;;;;;;;6.97;4.10;;;;;;;-6.81;100.00;99384.72;4998694;28;20573;-94
2021/01/29 06:46:07;;;;;;;6.20;3.70;;;;;;;-6.83;100.00;99383.81;4977805;28;20069;-94
2021/01/29 06:49:03;;;;;;;5.93;3.17;;;;;;;-6.81;100.00;99383.06;4962123;28;21049;-93
2021/01/29 06:52:07;;;;;;;7.50;4.27;;;;;;;-6.75;100.00;99379.78;4998405;28;20052;-93
2021/01/29 06:54:45;;;;;;;7.93;3.83;;;;;;;-6.68;100.00;99384.25;4962995;28;20054;-93
2021/01/29 06:57:53;;;;;;;8.87;4.03;;;;;;;-6.56;100.00;99382.03;4961874;28;20039;-95
2021/01/29 07:01:08;;;;;;;7.37;3.60;;;;;;;-6.45;100.00;99384.88;4972150;28;20050;-92
2021/01/29 07:03:37;;;;;;;8.93;4.30;;;;;;;-6.38;100.00;99378.22;4948158;28;20046;-93
2021/01/29 07:06:15;;;;;;;7.73;4.00;;;;;;;-6.33;100.00;99367.22;4969786;28;20073;-92
2021/01/29 07:09:01;;;;;;;8.77;3.97;;;;;;;-6.29;100.00;99361.34;4964823;28;20042;-92
2021/01/29 07:11:36;;;;;;;7.90;4.00;;;;;;;-6.24;100.00;99356.28;4980284;28;20046;-92
2021/01/29 07:14:19;;;;;;;8.60;4.40;;;;;;;-6.15;100.00;99351.38;4996100;28;20054;-92
2021/01/29 07:16:54;;;;;;;8.60;4.17;;;;;;;-6.09;100.00;99351.53;4980429;28;20034;-93
2021/01/29 07:20:03;;;;;;;8.77;4.10;;;;;;;-6.04;100.00;99356.81;4962227;28;20050;-92
2021/01/29 07:22:39;;;;;;;9.00;4.20;;;;;;;-5.92;100.00;99357.09;4992181;28;20110;-93
2021/01/29 07:25:32;;;;;;;7.10;4.60;;;;;;;-5.82;100.00;99358.16;4955228;28;20064;-93
2021/01/29 07:28:25;;;;;;;7.83;4.00;;;;;;;-5.73;100.00;99346.38;4955341;28;20042;-93
2021/01/29 07:31:15;;;;;;;6.93;3.73;;;;;;;-5.61;100.00;99338.09;4970308;28;20149;-92
2021/01/29 07:33:48;;;;;;;7.20;4.20;;;;;;;-5.51;100.00;99329.72;4963004;28;20107;-92
2021/01/29 07:36:27;;;;;;;8.87;4.97;;;;;;;-5.44;100.00;99323.88;4963878;28;20050;-93
2021/01/29 07:39:30;;;;;;;7.40;5.80;;;;;;;-5.36;100.00;99328.34;4960214;28;20310;-92
2021/01/29 07:42:34;;;;;;;9.40;5.73;;;;;;;-5.23;100.00;99330.31;4970884;28;20061;-93
2021/01/29 07:45:12;;;;;;;12.33;7.03;;;;;;;-5.08;100.00;99334.94;4994017;28;20108;-93
2021/01/29 07:48:16;;;;;;;12.33;7.03;;;;;;;-4.97;100.00;99334.28;4995802;28;20088;-93
2021/01/29 07:50:46;;;;;;;9.67;5.50;;;;;;;-4.86;100.00;99332.81;4996282;28;20169;-94
2021/01/29 07:53:52;;;;;;;11.90;5.60;;;;;;;-4.77;100.00;99326.13;4963632;28;20057;-93
2021/01/29 07:56:40;;;;;;;7.80;5.35;;;;;;;-4.70;100.00;99312.50;4995907;28;20043;-93
2021/01/29 07:59:24;;;;;;;11.87;6.50;;;;;;;-4.64;100.00;99316.03;4978611;28;20050;-93
2021/01/29 08:02:10;;;;;;;16.50;6.90;;;;;;;-4.54;100.00;99320.56;4983515;28;20049;-92
2021/01/29 08:04:47;;;;;;;14.90;7.13;;;;;;;-4.48;100.00;99329.22;4984191;28;20050;-93
2021/01/29 08:07:17;;;;;;;13.17;6.87;;;;;;;-4.43;100.00;99313.00;4986370;28;20058;-93
2021/01/29 08:09:51;;;;;;;13.67;7.23;;;;;;;-4.34;100.00;99308.00;4965157;28;20046;-93
2021/01/29 08:12:20;;;;;;;13.50;6.82;;;;;;;-4.23;100.00;99309.88;4964698;28;20050;-94
2021/01/29 08:14:46;;;;;;;12.27;7.33;;;;;;;-4.11;100.00;99304.94;4965520;28;20129;-93
2021/01/29 08:17:39;;;;;;;17.17;7.57;;;;;;;-4.02;100.00;99298.22;4984089;28;20308;-93
2021/01/29 08:20:32;;;;;;;12.43;6.57;;;;;;;-3.89;100.00;99295.81;4987159;28;20085;-93
2021/01/29 08:23:47;;;;;;;13.10;6.57;;;;;;;-3.73;100.00;99287.47;4965781;28;20057;-93
2021/01/29 08:26:56;;;;;;;12.60;7.00;;;;;;;-3.57;100.00;99275.66;4994388;28;20062;-94
2021/01/29 08:30:00;;;;;;;12.17;6.10;;;;;;;-3.50;100.00;99278.34;4986192;28;20049;-91
2021/01/29 08:33:02;;;;;;;11.70;5.30;;;;;;;-3.36;100.00;99277.63;4975917;28;20057;-93
2021/01/29 08:35:58;;;;;;;8.53;4.00;;;;;;;-3.21;100.00;99270.09;4980009;28;20045;-93
2021/01/29 08:38:46;;;;;;;6.43;3.30;;;;;;;-3.08;100.00;99271.13;4962293;28;20051;-93
2021/01/29 08:42:05;;;;;;;6.47;3.37;;;;;;;-3.01;100.00;99265.19;4980551;28;20136;-93
2021/01/29 08:44:46;;;;;;;7.40;3.10;;;;;;;-2.94;100.00;99267.84;4979999;28;20041;-93
2021/01/29 08:47:42;;;;;;;5.70;3.00;;;;;;;-2.86;100.00;99255.00;5001717;28;20057;-93
2021/01/29 08:50:28;;;;;;;5.07;3.50;;;;;;;-2.83;100.00;99255.91;4997705;28;20042;-93
2021/01/29 08:53:07;;;;;;;7.20;3.80;;;;;;;-2.72;100.00;99260.31;4961985;28;20074;-94
2021/01/29 08:55:47;;;;;;;5.93;3.20;;;;;;;-2.69;100.00;99257.75;4956569;28;20052;-93
2021/01/29 08:58:29;;;;;;;6.87;3.37;;;;;;;-2.62;100.00;99244.03;4980346;28;20042;-94
2021/01/29 09:01:03;;;;;;;6.43;3.33;;;;;;;-2.45;100.00;99255.41;5020839;23;20053;-67
2021/01/29 09:03:36;;;;;;;5.07;3.13;;;;;;;-2.31;100.00;99265.88;5001983;28;20257;-67
2021/01/29 09:06:18;;;;;;;5.77;3.10;;;;;;;-2.27;100.00;99257.28;4989289;28;20129;-67
2021/01/29 09:08:45;;;;;;;5.33;3.80;;;;;;;-2.23;100.00;99260.78;5002059;28;20038;-67
2021/01/29 09:11:41;;;;;;;11.23;4.77;;;;;;;-2.22;100.00;99252.16;4986526;28;20046;-67
2021/01/29 09:14:18;;;;;;;15.80;9.20;;;;;;;-2.19;100.00;99247.00;4998236;28;20715;-67
2021/01/29 09:16:45;;;;;;;13.43;8.30;;;;;;;-2.11;100.00;99243.59;4988128;28;20046;-67
2021/01/29 09:19:17;;;;;;;18.70;9.83;;;;;;;-1.98;100.00;99247.16;5003742;28;20125;-67
2021/01/29 09:22:09;;;;;;;10.97;6.33;;;;;;;-1.86;100.00;99247.25;5014063;28;20056;-67
2021/01/29 09:24:56;;;;;;;10.27;5.30;;;;;;;-1.75;100.00;99242.16;5003036;28;20046;-67
2021/01/29 09:27:26;;;;;;;7.13;3.87;;;;;;;-1.70;100.00;99245.63;5003836;28;20053;-67
2021/01/29 09:29:58;;;;;;;7.77;4.03;;;;;;;-1.72;100.00;99232.66;5003030;28;20042;-67
2021/01/29 09:32:42;;;;;;;6.50;4.10;;;;;;;-1.66;100.00;99231.84;5005195;28;20048;-67
2021/01/29 09:35:18;;;;;;;6.70;3.40;;;;;;;-1.46;100.00;99216.41;5004610;28;20038;-68
2021/01/29 09:37:51;;;;;;;4.90;3.23;;;;;;;-1.20;100.00;99214.78;5003126;28;20095;-67
2021/01/29 09:40:28;;;;;;;6.70;2.97;;;;;;;-1.01;100.00;99215.72;5003769;28;20046;-67
2021/01/29 09:43:20;;;;;;;4.80;2.30;;;;;;;-0.81;100.00;99207.97;4997028;28;20049;-67
2021/01/29 09:45:52;;;;;;;4.53;2.80;;;;;;;-0.63;96.73;99209.72;5011686;28;20054;-67
2021/01/29 09:48:21;;;;;;;3.20;1.90;;;;;;;-0.57;93.79;99202.81;4986277;28;20092;-68
2021/01/29 09:50:58;;;;;;;4.80;2.50;;;;;;;0.07;94.69;99208.84;5003407;28;20065;-67
2021/01/29 09:53:27;;;;;;;3.70;2.33;;;;;;;0.95;91.34;99205.97;5008451;28;20479;-68
2021/01/29 09:55:58;;;;;;;4.57;2.37;;;;;;;1.92;81.77;99195.72;5005820;28;20049;-68
2021/01/29 09:58:30;;;;;;;4.57;1.60;;;;;;;2.93;83.36;99186.78;5006178;28;20045;-68
2021/01/29 10:01:09;;;;;;;3.73;2.20;;;;;;;3.12;72.33;99188.28;5006244;28;20060;-67
2021/01/29 10:04:00;;;;;;;3.27;1.80;;;;;;;2.94;72.22;99176.31;5009087;28;21349;-68
2021/01/29 10:06:35;;;;;;;3.63;1.50;;;;;;;3.49;73.70;99178.13;5004977;28;20045;-68
2021/01/29 10:09:10;;;;;;;2.70;1.70;;;;;;;3.96;70.95;99176.50;5020690;28;20042;-67
2021/01/29 10:11:41;;;;;;;2.00;1.37;;;;;;;3.55;68.87;99171.97;5006356;28;20125;-67
2021/01/29 10:14:28;;;;;;;4.67;1.80;;;;;;;3.58;70.66;99169.28;4997792;28;20049;-68
2021/01/29 10:17:07;;;;;;;4.53;1.67;;;;;;;3.66;71.20;99162.19;4999793;28;20126;-67
2021/01/29 10:19:41;;;;;;;1.90;1.60;;;;;;;3.83;67.29;99160.16;5001881;28;20045;-67
2021/01/29 10:22:27;;;;;;;2.83;1.90;;;;;;;3.87;69.21;99155.78;5007098;28;20387;-67
2021/01/29 10:24:58;;;;;;;;;;;;;;;3.71;69.27;99155.16;5005725;28;20070;-68
2021/01/29 10:27:35;;;;;;;4.33;1.67;;;;;;;3.46;67.94;99159.06;5007303;28;19921;-68
2021/01/29 10:30:11;;;;;;;6.23;1.93;;;;;;;2.99;69.26;99153.66;5004849;28;20046;-67
2021/01/29 10:32:37;;;;;;;4.73;2.17;;;;;;;2.53;68.06;99149.06;5006727;28;20104;-67
2021/01/29 10:35:08;;;;;;;4.90;2.77;;;;;;;2.30;71.85;99163.22;5005833;28;20088;-67
2021/01/29 10:37:54;;;;;;;4.20;2.20;;;;;;;2.21;73.93;99154.63;5005255;28;20058;-67
2021/01/29 10:40:23;;;;;;;2.77;1.90;;;;;;;2.04;73.84;99158.28;4989093;28;20085;-67
2021/01/29 10:42:53;;;;;;;4.30;1.90;;;;;;;1.64;73.81;99149.09;5006382;28;20061;-67
2021/01/29 10:45:32;;;;;;;3.53;2.10;;;;;;;1.42;74.97;99157.97;5004003;28;20591;-67
2021/01/29 10:48:21;;;;;;;2.97;1.87;;;;;;;1.03;75.00;99146.13;5003942;28;20029;-67
2021/01/29 10:50:56;;;;;;;2.93;1.87;;;;;;;0.71;76.79;99156.69;5008150;28;20076;-67
2021/01/29 10:53:24;;;;;;;6.33;1.90;;;;;;;0.70;77.21;99152.38;5007449;28;20111;-67
2021/01/29 10:55:54;;;;;;;2.00;1.60;;;;;;;0.63;75.51;99156.72;5006951;28;20054;-68
2021/01/29 10:59:04;;;;;;;3.73;1.90;;;;;;;0.68;77.29;99156.72;5006355;28;20037;-68
2021/01/29 11:01:35;;;;;;;3.20;2.17;;;;;;;0.34;78.56;99155.97;5005491;28;20487;-67
2021/01/29 11:04:23;;;;;;;5.37;2.33;;;;;;;0.30;78.88;99152.53;5001725;28;20038;-67
2021/01/29 11:06:58;;;;;;;4.13;1.70;;;;;;;0.27;78.24;99145.63;5009052;28;20058;-68
2021/01/29 11:09:31;;;;;;;2.73;1.80;;;;;;;0.41;79.43;99137.75;5003588;28;20034;-70
2021/01/29 11:12:21;;;;;;;3.87;2.27;;;;;;;0.25;78.37;99129.19;5004441;28;20580;-67
2021/01/29 11:14:59;;;;;;;3.93;2.63;;;;;;;-0.04;77.41;99128.38;5001723;28;20045;-68
2021/01/29 11:17:43;;;;;;;8.37;4.47;;;;;;;0.22;78.43;99123.13;5004351;28;20093;-68
2021/01/29 11:20:14;;;;;;;4.93;2.70;;;;;;;-0.03;76.25;99110.22;4985398;28;20557;-68
2021/01/29 11:23:05;;;;;;;5.70;3.17;;;;;;;0.26;77.76;99106.66;4997136;28;20046;-68
2021/01/29 11:25:43;;;;;;;5.07;2.50;;;;;;;0.50;77.12;99111.72;5005888;28;20038;-68
2021/01/29 11:28:16;;;;;;;3.80;2.10;;;;;;;0.21;76.58;99113.59;5010268;28;20038;-68
2021/01/29 11:30:52;;;;;;;7.25;3.75;;;;;;;-0.08;78.68;99109.38;5002375;28;20614;-68
2021/01/29 11:33:28;;;;;;;3.97;2.60;;;;;;;0.01;77.70;99110.22;5003399;28;20081;-68
2021/01/29 11:36:16;;;;;;;3.50;2.40;;;;;;;0.12;76.36;99109.31;4986919;28;20042;-68
2021/01/29 11:38:44;;;;;;;8.13;5.63;;;;;;;0.35;75.01;99096.25;5000900;28;20396;-68
2021/01/29 11:41:28;;;;;;;5.47;3.77;;;;;;;1.09;74.25;99097.53;5003754;28;20072;-68
2021/01/29 11:44:31;;;;;;;3.57;2.60;;;;;;;1.75;70.28;99096.06;4993139;28;20056;-68
2021/01/29 11:47:06;;;;;;;3.97;2.10;;;;;;;2.33;70.32;99088.47;5005077;28;20065;-68
2021/01/29 11:49:37;;;;;;;4.07;1.60;;;;;;;2.89;69.76;99081.63;4986274;28;20069;-68
2021/01/29 11:52:10;;;;;;;2.60;1.63;;;;;;;3.04;65.99;99070.13;5001329;28;20053;-68
2021/01/29 11:55:07;;;;;;;2.13;1.50;;;;;;;3.32;66.79;99067.91;5001411;28;20502;-70
2021/01/29 11:57:38;;;;;;;4.07;2.00;;;;;;;2.95;65.05;99058.06;5002016;28;20038;-68
2021/01/29 12:00:14;;;;;;;2.87;1.83;;;;;;;2.95;66.14;99057.22;5003125;28;20533;-69
2021/01/29 12:02:44;;;;;;;3.93;1.63;;;;;;;2.12;68.74;99065.28;5003139;28;20038;-68
2021/01/29 12:05:47;;;;;;;3.00;1.90;;;;;;;2.01;71.78;99067.16;5001297;28;20050;-68
2021/01/29 12:08:22;;;;;;;3.63;1.83;;;;;;;1.83;70.63;99063.88;5000671;28;20040;-68
2021/01/29 12:10:58;;;;;;;3.17;1.83;;;;;;;1.98;71.54;99055.03;5003383;28;20044;-68
2021/01/29 12:13:42;;;;;;;3.77;1.70;;;;;;;1.74;70.82;99053.56;5003317;28;20041;-68
2021/01/29 12:16:12;;;;;;;2.40;1.65;;;;;;;1.98;72.26;99037.66;5002744;28;20548;-69
2021/01/29 12:18:39;;;;;;;3.33;1.83;;;;;;;2.22;71.95;99039.09;5002969;28;20511;-68
2021/01/29 12:21:09;;;;;;;1.90;1.50;;;;;;;2.29;70.92;99028.59;5001547;28;20414;-68
2021/01/29 12:23:47;;;;;;;2.73;1.57;;;;;;;2.30;71.65;99032.94;4999038;28;20038;-68
2021/01/29 12:26:35;;;;;;;4.20;2.40;;;;;;;2.17;70.51;99032.22;5013762;28;20073;-68
2021/01/29 12:29:11;;;;;;;3.57;1.80;;;;;;;1.72;68.29;99034.50;5001906;28;20057;-69